sensor_id;sensor_type;location;lat;lon;timestamp;P1;durP1;ratioP1;P2;durP2;ratioP2
64235;SDS011;50564;47.402;9.740;2022-09-21T00:00:16;2.55;;;1.38;;
64235;SDS011;50564;47.402;9.740;2022-09-21T00:05:17;3.42;;;1.60;;
64235;SDS011;50564;47.402;9.740;2022-09-21T00:10:18;3.70;;;1.70;;
64235;SDS011;50564;47.402;9.740;2022-09-21T00:15:19;2.40;;;1.58;;
64235;SDS011;50564;47.402;9.740;2022-09-21T00:20:20;4.72;;;1.90;;
64235;SDS011;50564;47.402;9.740;2022-09-21T00:25:21;3.92;;;1.90;;
64235;SDS011;50564;47.402;9.740;2022-09-21T00:30:21;3.90;;;1.90;;
64235;SDS011;50564;47.402;9.740;2022-09-21T00:35:22;3.95;;;1.77;;
64235;SDS011;50564;47.402;9.740;2022-09-21T00:40:23;4.70;;;2.10;;
64235;SDS011;50564;47.402;9.740;2022-09-21T00:45:23;6.40;;;2.00;;
64235;SDS011;50564;47.402;9.740;2022-09-21T00:50:24;3.65;;;1.95;;
64235;SDS011;50564;47.402;9.740;2022-09-21T00:55:26;2.05;;;1.85;;
64235;SDS011;50564;47.402;9.740;2022-09-21T01:00:30;4.95;;;2.00;;
64235;SDS011;50564;47.402;9.740;2022-09-21T01:05:31;4.03;;;1.70;;
64235;SDS011;50564;47.402;9.740;2022-09-21T01:10:37;3.83;;;1.88;;
64235;SDS011;50564;47.402;9.740;2022-09-21T01:31:21;6.57;;;1.90;;
64235;SDS011;50564;47.402;9.740;2022-09-21T01:36:29;2.33;;;1.48;;
64235;SDS011;50564;47.402;9.740;2022-09-21T01:41:30;3.40;;;1.75;;
64235;SDS011;50564;47.402;9.740;2022-09-21T01:46:32;3.63;;;1.92;;
64235;SDS011;50564;47.402;9.740;2022-09-21T01:51:33;2.45;;;1.55;;
64235;SDS011;50564;47.402;9.740;2022-09-21T01:56:37;6.95;;;1.80;;
64235;SDS011;50564;47.402;9.740;2022-09-21T02:01:41;4.97;;;1.90;;
64235;SDS011;50564;47.402;9.740;2022-09-21T02:06:45;1.83;;;1.65;;
64235;SDS011;50564;47.402;9.740;2022-09-21T02:11:46;3.53;;;2.20;;
64235;SDS011;50564;47.402;9.740;2022-09-21T02:28:00;4.03;;;1.85;;
64235;SDS011;50564;47.402;9.740;2022-09-21T02:33:27;4.30;;;2.00;;
64235;SDS011;50564;47.402;9.740;2022-09-21T02:48:46;3.75;;;1.70;;
64235;SDS011;50564;47.402;9.740;2022-09-21T02:53:48;6.72;;;1.90;;
64235;SDS011;50564;47.402;9.740;2022-09-21T02:58:52;5.15;;;1.90;;
64235;SDS011;50564;47.402;9.740;2022-09-21T03:03:54;6.68;;;2.22;;
64235;SDS011;50564;47.402;9.740;2022-09-21T03:08:54;3.35;;;2.20;;
64235;SDS011;50564;47.402;9.740;2022-09-21T03:13:57;3.83;;;1.90;;
64235;SDS011;50564;47.402;9.740;2022-09-21T03:18:58;2.92;;;1.67;;
64235;SDS011;50564;47.402;9.740;2022-09-21T03:23:58;2.53;;;1.65;;
64235;SDS011;50564;47.402;9.740;2022-09-21T03:28:59;6.00;;;1.70;;
64235;SDS011;50564;47.402;9.740;2022-09-21T03:34:00;4.80;;;1.77;;
64235;SDS011;50564;47.402;9.740;2022-09-21T03:39:00;3.90;;;2.28;;
64235;SDS011;50564;47.402;9.740;2022-09-21T03:44:01;4.43;;;2.10;;
64235;SDS011;50564;47.402;9.740;2022-09-21T03:49:02;4.72;;;1.80;;
64235;SDS011;50564;47.402;9.740;2022-09-21T03:54:02;5.05;;;2.05;;
64235;SDS011;50564;47.402;9.740;2022-09-21T03:59:03;2.95;;;1.92;;
64235;SDS011;50564;47.402;9.740;2022-09-21T04:04:04;3.25;;;1.58;;
64235;SDS011;50564;47.402;9.740;2022-09-21T04:09:05;4.47;;;2.00;;
64235;SDS011;50564;47.402;9.740;2022-09-21T04:14:05;2.97;;;2.35;;
64235;SDS011;50564;47.402;9.740;2022-09-21T04:19:07;2.85;;;2.08;;
64235;SDS011;50564;47.402;9.740;2022-09-21T04:24:07;3.33;;;1.73;;
64235;SDS011;50564;47.402;9.740;2022-09-21T04:29:08;3.95;;;1.65;;
64235;SDS011;50564;47.402;9.740;2022-09-21T04:34:11;4.25;;;2.00;;
64235;SDS011;50564;47.402;9.740;2022-09-21T04:39:12;4.95;;;2.15;;
64235;SDS011;50564;47.402;9.740;2022-09-21T04:44:13;4.70;;;2.40;;
64235;SDS011;50564;47.402;9.740;2022-09-21T04:49:14;4.68;;;1.88;;
64235;SDS011;50564;47.402;9.740;2022-09-21T04:54:15;4.93;;;2.22;;
64235;SDS011;50564;47.402;9.740;2022-09-21T04:59:16;5.07;;;2.05;;
64235;SDS011;50564;47.402;9.740;2022-09-21T05:04:16;4.55;;;2.60;;
64235;SDS011;50564;47.402;9.740;2022-09-21T05:09:17;5.50;;;2.60;;
64235;SDS011;50564;47.402;9.740;2022-09-21T05:14:36;6.07;;;2.75;;
64235;SDS011;50564;47.402;9.740;2022-09-21T05:19:37;3.88;;;2.38;;
64235;SDS011;50564;47.402;9.740;2022-09-21T05:24:37;6.45;;;2.65;;
64235;SDS011;50564;47.402;9.740;2022-09-21T05:29:38;6.35;;;2.58;;
64235;SDS011;50564;47.402;9.740;2022-09-21T05:44:59;4.90;;;2.30;;
64235;SDS011;50564;47.402;9.740;2022-09-21T05:55:28;5.18;;;2.47;;
64235;SDS011;50564;47.402;9.740;2022-09-21T06:06:06;4.28;;;2.40;;
64235;SDS011;50564;47.402;9.740;2022-09-21T06:11:07;5.18;;;2.35;;
64235;SDS011;50564;47.402;9.740;2022-09-21T06:16:08;6.28;;;3.53;;
64235;SDS011;50564;47.402;9.740;2022-09-21T06:21:09;5.00;;;2.83;;
64235;SDS011;50564;47.402;9.740;2022-09-21T06:26:10;5.95;;;2.38;;
64235;SDS011;50564;47.402;9.740;2022-09-21T06:31:10;6.47;;;2.40;;
64235;SDS011;50564;47.402;9.740;2022-09-21T06:36:11;4.85;;;2.35;;
64235;SDS011;50564;47.402;9.740;2022-09-21T06:41:11;6.82;;;2.47;;
64235;SDS011;50564;47.402;9.740;2022-09-21T06:46:12;6.88;;;2.65;;
64235;SDS011;50564;47.402;9.740;2022-09-21T06:51:13;4.40;;;2.40;;
64235;SDS011;50564;47.402;9.740;2022-09-21T06:56:13;8.07;;;3.38;;
64235;SDS011;50564;47.402;9.740;2022-09-21T07:01:14;6.03;;;2.80;;
64235;SDS011;50564;47.402;9.740;2022-09-21T07:06:15;10.30;;;5.18;;
64235;SDS011;50564;47.402;9.740;2022-09-21T07:11:17;11.95;;;5.40;;
64235;SDS011;50564;47.402;9.740;2022-09-21T07:16:18;13.82;;;6.10;;
64235;SDS011;50564;47.402;9.740;2022-09-21T07:21:19;9.10;;;5.45;;
64235;SDS011;50564;47.402;9.740;2022-09-21T07:26:19;10.45;;;5.68;;
64235;SDS011;50564;47.402;9.740;2022-09-21T07:31:21;9.82;;;4.97;;
64235;SDS011;50564;47.402;9.740;2022-09-21T07:36:22;9.88;;;4.82;;
64235;SDS011;50564;47.402;9.740;2022-09-21T07:41:23;11.93;;;5.30;;
64235;SDS011;50564;47.402;9.740;2022-09-21T07:46:24;10.05;;;5.25;;
64235;SDS011;50564;47.402;9.740;2022-09-21T07:51:24;11.02;;;4.93;;
64235;SDS011;50564;47.402;9.740;2022-09-21T07:56:25;7.85;;;4.15;;
64235;SDS011;50564;47.402;9.740;2022-09-21T08:01:26;11.43;;;4.35;;
64235;SDS011;50564;47.402;9.740;2022-09-21T08:06:27;9.73;;;4.35;;
64235;SDS011;50564;47.402;9.740;2022-09-21T08:11:31;9.55;;;4.75;;
64235;SDS011;50564;47.402;9.740;2022-09-21T08:16:32;10.70;;;4.47;;
64235;SDS011;50564;47.402;9.740;2022-09-21T08:21:33;9.48;;;5.07;;
64235;SDS011;50564;47.402;9.740;2022-09-21T08:26:33;7.00;;;4.00;;
64235;SDS011;50564;47.402;9.740;2022-09-21T08:31:34;10.45;;;3.55;;
64235;SDS011;50564;47.402;9.740;2022-09-21T08:36:35;8.27;;;3.58;;
64235;SDS011;50564;47.402;9.740;2022-09-21T08:46:46;5.18;;;2.75;;
64235;SDS011;50564;47.402;9.740;2022-09-21T08:51:50;5.28;;;2.83;;
64235;SDS011;50564;47.402;9.740;2022-09-21T08:56:54;6.95;;;3.80;;
64235;SDS011;50564;47.402;9.740;2022-09-21T09:02:11;7.35;;;3.50;;
64235;SDS011;50564;47.402;9.740;2022-09-21T09:33:51;4.22;;;2.80;;
64235;SDS011;50564;47.402;9.740;2022-09-21T09:54:32;4.90;;;2.90;;
64235;SDS011;50564;47.402;9.740;2022-09-21T10:15:22;7.47;;;2.40;;
64235;SDS011;50564;47.402;9.740;2022-09-21T10:20:23;5.30;;;2.80;;
64235;SDS011;50564;47.402;9.740;2022-09-21T10:25:24;4.38;;;2.38;;
64235;SDS011;50564;47.402;9.740;2022-09-21T10:35:29;4.53;;;2.17;;
64235;SDS011;50564;47.402;9.740;2022-09-21T10:40:29;4.70;;;2.42;;
64235;SDS011;50564;47.402;9.740;2022-09-21T10:45:35;5.57;;;2.28;;
64235;SDS011;50564;47.402;9.740;2022-09-21T10:50:37;5.10;;;2.17;;
64235;SDS011;50564;47.402;9.740;2022-09-21T10:56:06;4.15;;;2.08;;
64235;SDS011;50564;47.402;9.740;2022-09-21T11:01:22;6.70;;;2.22;;
64235;SDS011;50564;47.402;9.740;2022-09-21T11:06:24;3.78;;;1.90;;
64235;SDS011;50564;47.402;9.740;2022-09-21T11:16:34;5.15;;;1.90;;
64235;SDS011;50564;47.402;9.740;2022-09-21T11:37:38;4.90;;;1.75;;
64235;SDS011;50564;47.402;9.740;2022-09-21T11:53:33;3.05;;;1.52;;
64235;SDS011;50564;47.402;9.740;2022-09-21T12:14:59;3.00;;;1.42;;
64235;SDS011;50564;47.402;9.740;2022-09-21T12:25:31;3.97;;;1.58;;
64235;SDS011;50564;47.402;9.740;2022-09-21T12:30:41;2.43;;;0.97;;
64235;SDS011;50564;47.402;9.740;2022-09-21T12:35:45;2.72;;;1.13;;
64235;SDS011;50564;47.402;9.740;2022-09-21T12:40:57;3.90;;;1.13;;
64235;SDS011;50564;47.402;9.740;2022-09-21T12:46:20;3.30;;;1.50;;
64235;SDS011;50564;47.402;9.740;2022-09-21T12:51:32;4.85;;;1.42;;
64235;SDS011;50564;47.402;9.740;2022-09-21T12:56:42;1.90;;;1.08;;
64235;SDS011;50564;47.402;9.740;2022-09-21T13:17:31;4.05;;;1.20;;
64235;SDS011;50564;47.402;9.740;2022-09-21T13:22:32;3.15;;;1.10;;
64235;SDS011;50564;47.402;9.740;2022-09-21T13:38:26;2.28;;;0.85;;
64235;SDS011;50564;47.402;9.740;2022-09-21T13:48:53;2.67;;;0.88;;
64235;SDS011;50564;47.402;9.740;2022-09-21T13:53:54;2.03;;;0.82;;
64235;SDS011;50564;47.402;9.740;2022-09-21T13:58:58;1.13;;;0.70;;
64235;SDS011;50564;47.402;9.740;2022-09-21T14:03:59;2.78;;;0.80;;
64235;SDS011;50564;47.402;9.740;2022-09-21T14:09:06;1.85;;;1.02;;
64235;SDS011;50564;47.402;9.740;2022-09-21T14:14:34;1.85;;;0.90;;
64235;SDS011;50564;47.402;9.740;2022-09-21T14:29:49;2.03;;;1.08;;
64235;SDS011;50564;47.402;9.740;2022-09-21T14:34:59;4.45;;;1.20;;
64235;SDS011;50564;47.402;9.740;2022-09-21T14:40:20;2.13;;;1.17;;
64235;SDS011;50564;47.402;9.740;2022-09-21T15:02:00;1.65;;;0.75;;
64235;SDS011;50564;47.402;9.740;2022-09-21T15:18:17;3.37;;;0.90;;
64235;SDS011;50564;47.402;9.740;2022-09-21T15:23:20;1.98;;;1.00;;
64235;SDS011;50564;47.402;9.740;2022-09-21T15:28:25;2.50;;;0.98;;
64235;SDS011;50564;47.402;9.740;2022-09-21T15:33:44;3.63;;;1.00;;
64235;SDS011;50564;47.402;9.740;2022-09-21T15:39:05;1.50;;;0.88;;
64235;SDS011;50564;47.402;9.740;2022-09-21T15:44:21;2.30;;;0.82;;
64235;SDS011;50564;47.402;9.740;2022-09-21T15:49:23;1.15;;;0.68;;
64235;SDS011;50564;47.402;9.740;2022-09-21T15:54:30;1.73;;;0.90;;
64235;SDS011;50564;47.402;9.740;2022-09-21T15:59:34;2.97;;;0.82;;
64235;SDS011;50564;47.402;9.740;2022-09-21T16:04:35;2.33;;;0.90;;
64235;SDS011;50564;47.402;9.740;2022-09-21T16:09:40;2.78;;;0.90;;
64235;SDS011;50564;47.402;9.740;2022-09-21T16:14:45;2.35;;;0.75;;
64235;SDS011;50564;47.402;9.740;2022-09-21T16:24:57;1.98;;;0.90;;
64235;SDS011;50564;47.402;9.740;2022-09-21T16:29:59;2.97;;;1.00;;
64235;SDS011;50564;47.402;9.740;2022-09-21T16:40:28;1.00;;;0.70;;
64235;SDS011;50564;47.402;9.740;2022-09-21T16:45:29;2.05;;;1.20;;
64235;SDS011;50564;47.402;9.740;2022-09-21T16:50:30;1.90;;;1.27;;
64235;SDS011;50564;47.402;9.740;2022-09-21T16:55:32;2.20;;;1.10;;
64235;SDS011;50564;47.402;9.740;2022-09-21T17:00:36;1.60;;;1.20;;
64235;SDS011;50564;47.402;9.740;2022-09-21T17:05:40;2.33;;;1.30;;
64235;SDS011;50564;47.402;9.740;2022-09-21T17:10:42;3.58;;;1.27;;
64235;SDS011;50564;47.402;9.740;2022-09-21T17:15:44;1.00;;;0.90;;
64235;SDS011;50564;47.402;9.740;2022-09-21T17:20:48;6.82;;;1.60;;
64235;SDS011;50564;47.402;9.740;2022-09-21T17:25:49;2.45;;;1.40;;
64235;SDS011;50564;47.402;9.740;2022-09-21T17:30:52;3.92;;;1.63;;
64235;SDS011;50564;47.402;9.740;2022-09-21T17:35:53;2.70;;;1.60;;
64235;SDS011;50564;47.402;9.740;2022-09-21T17:40:54;2.67;;;1.70;;
64235;SDS011;50564;47.402;9.740;2022-09-21T17:45:56;3.28;;;1.80;;
64235;SDS011;50564;47.402;9.740;2022-09-21T17:51:14;4.25;;;2.10;;
64235;SDS011;50564;47.402;9.740;2022-09-21T18:01:53;2.83;;;1.83;;
64235;SDS011;50564;47.402;9.740;2022-09-21T18:06:58;5.10;;;1.90;;
64235;SDS011;50564;47.402;9.740;2022-09-21T18:39:40;2.17;;;1.45;;
64235;SDS011;50564;47.402;9.740;2022-09-21T18:44:41;3.33;;;1.65;;
64235;SDS011;50564;47.402;9.740;2022-09-21T18:50:20;3.80;;;1.95;;
64235;SDS011;50564;47.402;9.740;2022-09-21T18:55:25;4.00;;;1.60;;
64235;SDS011;50564;47.402;9.740;2022-09-21T19:00:27;4.18;;;1.60;;
64235;SDS011;50564;47.402;9.740;2022-09-21T19:05:33;3.22;;;1.77;;
64235;SDS011;50564;47.402;9.740;2022-09-21T19:10:44;4.68;;;2.47;;
64235;SDS011;50564;47.402;9.740;2022-09-21T19:21:09;3.75;;;1.23;;
64235;SDS011;50564;47.402;9.740;2022-09-21T19:31:23;3.35;;;1.25;;
64235;SDS011;50564;47.402;9.740;2022-09-21T19:36:24;2.42;;;1.25;;
64235;SDS011;50564;47.402;9.740;2022-09-21T19:41:30;2.92;;;1.50;;
64235;SDS011;50564;47.402;9.740;2022-09-21T19:46:36;3.83;;;1.23;;
64235;SDS011;50564;47.402;9.740;2022-09-21T19:51:43;2.92;;;1.50;;
64235;SDS011;50564;47.402;9.740;2022-09-21T19:56:47;2.25;;;1.40;;
64235;SDS011;50564;47.402;9.740;2022-09-21T20:02:29;2.20;;;1.70;;
64235;SDS011;50564;47.402;9.740;2022-09-21T20:18:17;2.30;;;1.63;;
64235;SDS011;50564;47.402;9.740;2022-09-21T20:23:23;3.35;;;1.25;;
64235;SDS011;50564;47.402;9.740;2022-09-21T20:28:24;3.33;;;1.30;;
64235;SDS011;50564;47.402;9.740;2022-09-21T20:33:25;4.45;;;1.45;;
64235;SDS011;50564;47.402;9.740;2022-09-21T20:38:27;3.15;;;1.40;;
64235;SDS011;50564;47.402;9.740;2022-09-21T20:43:27;4.18;;;1.42;;
64235;SDS011;50564;47.402;9.740;2022-09-21T20:48:28;4.93;;;1.33;;
64235;SDS011;50564;47.402;9.740;2022-09-21T20:53:28;2.17;;;1.40;;
64235;SDS011;50564;47.402;9.740;2022-09-21T20:58:29;2.05;;;1.33;;
64235;SDS011;50564;47.402;9.740;2022-09-21T21:03:30;4.18;;;1.58;;
64235;SDS011;50564;47.402;9.740;2022-09-21T21:08:30;5.63;;;1.75;;
64235;SDS011;50564;47.402;9.740;2022-09-21T21:13:31;2.67;;;1.40;;
64235;SDS011;50564;47.402;9.740;2022-09-21T21:18:32;2.90;;;1.33;;
64235;SDS011;50564;47.402;9.740;2022-09-21T21:23:33;2.88;;;1.35;;
64235;SDS011;50564;47.402;9.740;2022-09-21T21:28:53;4.18;;;1.63;;
64235;SDS011;50564;47.402;9.740;2022-09-21T21:33:54;2.60;;;1.33;;
64235;SDS011;50564;47.402;9.740;2022-09-21T21:38:55;4.03;;;1.50;;
64235;SDS011;50564;47.402;9.740;2022-09-21T21:43:55;2.60;;;1.58;;
64235;SDS011;50564;47.402;9.740;2022-09-21T21:48:57;1.98;;;1.33;;
64235;SDS011;50564;47.402;9.740;2022-09-21T21:53:57;4.57;;;1.52;;
64235;SDS011;50564;47.402;9.740;2022-09-21T21:58:58;2.13;;;1.55;;
64235;SDS011;50564;47.402;9.740;2022-09-21T22:03:59;2.08;;;1.50;;
64235;SDS011;50564;47.402;9.740;2022-09-21T22:09:02;2.50;;;1.45;;
64235;SDS011;50564;47.402;9.740;2022-09-21T22:14:04;3.60;;;1.42;;
64235;SDS011;50564;47.402;9.740;2022-09-21T22:19:06;2.28;;;1.73;;
64235;SDS011;50564;47.402;9.740;2022-09-21T22:24:07;2.42;;;1.63;;
64235;SDS011;50564;47.402;9.740;2022-09-21T22:29:09;2.90;;;1.50;;
64235;SDS011;50564;47.402;9.740;2022-09-21T22:34:12;3.60;;;2.17;;
64235;SDS011;50564;47.402;9.740;2022-09-21T22:39:13;3.65;;;1.65;;
64235;SDS011;50564;47.402;9.740;2022-09-21T22:44:14;4.72;;;1.88;;
64235;SDS011;50564;47.402;9.740;2022-09-21T22:49:15;4.15;;;1.67;;
64235;SDS011;50564;47.402;9.740;2022-09-21T22:54:15;2.40;;;1.55;;
64235;SDS011;50564;47.402;9.740;2022-09-21T22:59:16;5.32;;;1.75;;
64235;SDS011;50564;47.402;9.740;2022-09-21T23:04:17;4.60;;;2.50;;
64235;SDS011;50564;47.402;9.740;2022-09-21T23:09:18;2.85;;;1.52;;
64235;SDS011;50564;47.402;9.740;2022-09-21T23:14:20;2.35;;;1.30;;
64235;SDS011;50564;47.402;9.740;2022-09-21T23:19:21;3.15;;;1.58;;
64235;SDS011;50564;47.402;9.740;2022-09-21T23:24:22;2.58;;;1.15;;
64235;SDS011;50564;47.402;9.740;2022-09-21T23:29:23;1.90;;;1.40;;
64235;SDS011;50564;47.402;9.740;2022-09-21T23:34:23;3.22;;;2.03;;
64235;SDS011;50564;47.402;9.740;2022-09-21T23:39:24;2.10;;;1.60;;
64235;SDS011;50564;47.402;9.740;2022-09-21T23:44:25;6.25;;;1.67;;
64235;SDS011;50564;47.402;9.740;2022-09-21T23:49:25;3.55;;;1.60;;
64235;SDS011;50564;47.402;9.740;2022-09-21T23:54:26;2.40;;;1.70;;
64235;SDS011;50564;47.402;9.740;2022-09-21T23:59:26;3.05;;;1.73;;
